Time;durP1;ratioP1;P1;durP2;ratioP2;P2;SDS_P1;SDS_P2;PMS_P1;PMS_P2;Temp;Humidity;BMP_temperature;BMP_pressure;BME280_temperature;BME280_humidity;BME280_pressure;Samples;Min_cycle;Max_cycle;Signal;HPM_P1;HPM_P2
2023/01/23 00:00:09;;;;;;;11.63;6.47;;;3.30;83.50;;;;;;5034545;28;20128;-77
2023/01/23 00:02:35;;;;;;;11.82;6.00;;;3.40;83.60;;;;;;5050899;28;20037;-77
2023/01/23 00:05:02;;;;;;;13.57;6.35;;;3.40;83.50;;;;;;5051441;28;20044;-77
2023/01/23 00:07:27;;;;;;;11.77;6.90;;;3.40;83.50;;;;;;5051127;28;20065;-77
2023/01/23 00:09:53;;;;;;;10.60;6.20;;;3.30;83.50;;;;;;5050836;28;20397;-77
2023/01/23 00:12:19;;;;;;;11.93;6.40;;;3.40;83.50;;;;;;5050821;28;20045;-77
2023/01/23 00:14:44;;;;;;;13.70;7.00;;;3.40;83.50;;;;;;5036559;28;20049;-78
2023/01/23 00:17:10;;;;;;;14.57;6.60;;;3.40;83.50;;;;;;5021576;28;20033;-78
2023/01/23 00:19:36;;;;;;;10.32;5.95;;;3.40;83.90;;;;;;5018509;28;20481;-77
2023/01/23 00:22:02;;;;;;;8.90;6.15;;;3.40;83.50;;;;;;5068810;28;20095;-79
2023/01/23 00:24:27;;;;;;;9.10;6.38;;;3.40;83.50;;;;;;5002531;28;20484;-81
2023/01/23 00:26:54;;;;;;;15.00;6.22;;;3.50;83.60;;;;;;5052261;28;20041;-80
2023/01/23 00:29:20;;;;;;;11.85;6.15;;;3.40;83.60;;;;;;5051817;28;20034;-81
2023/01/23 00:31:45;;;;;;;12.68;6.38;;;3.40;83.60;;;;;;5054709;28;20377;-80
2023/01/23 00:34:13;;;;;;;12.35;6.22;;;3.40;83.60;;;;;;5054043;28;20037;-79
2023/01/23 00:36:41;;;;;;;14.07;6.95;;;3.40;83.60;;;;;;5054900;28;20052;-80
2023/01/23 00:39:25;;;;;;;15.00;6.72;;;3.40;83.60;;;;;;5037965;28;20041;-79
2023/01/23 00:41:51;;;;;;;11.75;6.57;;;3.40;83.70;;;;;;5021546;28;20040;-80
2023/01/23 00:44:17;;;;;;;11.38;6.25;;;3.40;83.70;;;;;;5054660;28;20041;-80
2023/01/23 00:46:42;;;;;;;13.85;7.82;;;3.40;83.70;;;;;;5055006;28;20041;-80
2023/01/23 00:49:08;;;;;;;14.23;8.80;;;3.40;83.70;;;;;;5037923;28;20488;-80
2023/01/23 00:51:34;;;;;;;15.43;8.88;;;3.30;83.70;;;;;;5038148;28;20041;-80
2023/01/23 00:54:00;;;;;;;15.00;8.50;;;3.40;83.80;;;;;;5037752;28;20048;-80
2023/01/23 00:56:28;;;;;;;14.68;9.20;;;3.30;83.70;;;;;;5054369;28;20579;-81
2023/01/23 00:58:54;;;;;;;16.77;9.80;;;3.30;83.80;;;;;;5054211;28;20075;-80
2023/01/23 01:01:21;;;;;;;15.48;8.43;;;3.30;83.80;;;;;;5054636;28;20442;-80
2023/01/23 01:03:47;;;;;;;13.02;8.32;;;3.30;84.20;;;;;;5053981;28;20045;-80
2023/01/23 01:06:13;;;;;;;13.45;8.30;;;3.30;83.90;;;;;;5034261;28;20092;-80
2023/01/23 01:08:40;;;;;;;19.05;10.73;;;3.30;83.90;;;;;;5036051;28;20064;-80
2023/01/23 01:11:06;;;;;;;15.85;9.00;;;3.30;83.90;;;;;;5034278;28;20132;-80
2023/01/23 01:13:33;;;;;;;13.60;7.57;;;3.30;83.90;;;;;;5034217;28;20041;-80
2023/01/23 01:16:00;;;;;;;11.77;7.72;;;3.30;83.90;;;;;;5067399;28;20038;-80
2023/01/23 01:18:27;;;;;;;13.75;7.80;;;3.30;84.00;;;;;;5001617;28;20033;-80
2023/01/23 01:20:53;;;;;;;16.98;8.43;;;3.30;84.10;;;;;;5034316;28;20049;-80
2023/01/23 01:23:19;;;;;;;14.82;8.00;;;3.30;84.10;;;;;;5050817;28;20473;-80
2023/01/23 01:25:45;;;;;;;16.58;9.00;;;3.30;84.10;;;;;;5067649;28;20098;-80
2023/01/23 01:28:11;;;;;;;12.43;8.25;;;3.30;84.10;;;;;;5053918;28;20079;-80
2023/01/23 01:30:38;;;;;;;14.43;7.82;;;3.30;84.10;;;;;;5053985;28;20068;-80
2023/01/23 01:33:04;;;;;;;13.13;8.30;;;3.40;84.20;;;;;;5053508;28;20078;-80
2023/01/23 01:35:30;;;;;;;17.08;9.38;;;3.40;84.30;;;;;;5037140;28;20095;-77
2023/01/23 01:37:55;;;;;;;14.27;8.52;;;3.30;84.20;;;;;;5036710;28;20037;-76
2023/01/23 01:40:25;;;;;;;15.60;9.15;;;3.30;84.30;;;;;;5036686;28;20091;-76
2023/01/23 01:42:59;;;;;;;12.10;8.20;;;3.30;84.30;;;;;;5036540;28;20439;-76
2023/01/23 01:45:58;;;;;;;13.07;7.90;;;3.30;84.40;;;;;;5042569;28;20033;-76
2023/01/23 01:48:30;;;;;;;12.68;7.45;;;3.40;84.40;;;;;;5033284;28;20049;-76
2023/01/23 01:50:58;;;;;;;11.70;7.63;;;3.30;84.40;;;;;;5050231;28;20381;-76
2023/01/23 01:53:27;;;;;;;12.65;7.53;;;3.30;84.40;;;;;;5040111;28;20032;-76
2023/01/23 01:55:53;;;;;;;12.10;7.68;;;3.30;84.40;;;;;;5036426;28;20037;-76
2023/01/23 01:58:19;;;;;;;14.70;9.07;;;3.40;84.50;;;;;;5052811;28;20075;-76
2023/01/23 02:00:44;;;;;;;13.70;7.97;;;3.40;84.40;;;;;;5052981;28;20497;-76
2023/01/23 02:03:10;;;;;;;14.90;8.90;;;3.40;84.50;;;;;;5051836;28;20116;-76
2023/01/23 02:05:46;;;;;;;15.43;8.63;;;3.40;84.40;;;;;;5052470;28;20037;-77
2023/01/23 02:08:31;;;;;;;12.50;8.43;;;3.40;84.50;;;;;;5035917;28;20059;-77
2023/01/23 02:11:00;;;;;;;15.38;8.93;;;3.40;84.50;;;;;;5017249;28;20459;-76
2023/01/23 02:13:38;;;;;;;16.15;9.43;;;3.40;84.30;;;;;;5052338;28;20041;-76
2023/01/23 02:16:04;;;;;;;14.45;8.98;;;3.40;84.30;;;;;;5019567;28;20044;-77
2023/01/23 02:18:31;;;;;;;17.70;8.20;;;3.40;84.30;;;;;;5052235;28;20045;-76
2023/01/23 02:20:59;;;;;;;13.82;8.93;;;3.30;84.20;;;;;;5052978;28;20073;-76
2023/01/23 02:24:04;;;;;;;13.30;8.60;;;3.40;84.40;;;;;;5068519;28;20095;-76
2023/01/23 02:26:37;;;;;;;11.37;7.50;;;3.40;84.40;;;;;;5032555;28;20140;-76
2023/01/23 02:29:05;;;;;;;13.15;7.63;;;3.40;84.40;;;;;;5068874;28;20288;-76
2023/01/23 02:31:30;;;;;;;12.48;7.70;;;3.40;84.40;;;;;;5035756;28;20044;-76
2023/01/23 02:33:57;;;;;;;14.80;8.57;;;3.40;84.40;;;;;;5052200;28;20079;-76
2023/01/23 02:36:26;;;;;;;14.15;8.63;;;3.40;84.30;;;;;;5051967;28;20068;-77
2023/01/23 02:39:08;;;;;;;14.75;8.70;;;3.40;84.30;;;;;;5035250;28;20044;-77
2023/01/23 02:41:42;;;;;;;16.88;9.25;;;3.40;84.40;;;;;;5051808;28;20036;-76
2023/01/23 02:44:26;;;;;;;12.90;8.13;;;3.40;84.40;;;;;;5035322;28;20075;-77
2023/01/23 02:47:01;;;;;;;14.95;8.27;;;3.40;84.70;;;;;;5052157;28;20133;-77
2023/01/23 02:49:28;;;;;;;15.75;8.40;;;3.40;84.30;;;;;;5035061;28;20036;-77
2023/01/23 02:51:55;;;;;;;14.82;8.85;;;3.40;84.30;;;;;;5051624;28;20716;-77
2023/01/23 02:54:21;;;;;;;11.90;7.43;;;3.40;84.30;;;;;;5051441;28;20053;-77
2023/01/23 02:56:47;;;;;;;16.80;9.05;;;3.40;84.20;;;;;;5015394;28;20136;-76
2023/01/23 03:01:58;;;;;;;13.60;8.48;;;3.40;84.30;;;;;;5051618;28;20048;-77
2023/01/23 03:04:24;;;;;;;11.90;8.20;;;3.40;84.30;;;;;;5051361;28;20044;-76
2023/01/23 03:06:49;;;;;;;12.27;8.32;;;3.40;84.30;;;;;;5035209;28;20041;-76
2023/01/23 03:09:16;;;;;;;14.82;8.82;;;3.50;84.40;;;;;;5034597;28;20483;-77
2023/01/23 03:11:43;;;;;;;12.30;8.15;;;3.50;84.30;;;;;;5035070;28;20040;-77
2023/01/23 03:14:15;;;;;;;13.23;8.68;;;3.50;84.30;;;;;;5034851;28;20047;-77
2023/01/23 03:16:41;;;;;;;16.45;8.00;;;3.50;84.30;;;;;;5051597;28;20049;-77
2023/01/23 03:19:09;;;;;;;12.85;8.25;;;3.50;84.20;;;;;;5035281;28;20392;-77
2023/01/23 03:21:36;;;;;;;12.48;8.45;;;3.50;84.20;;;;;;5051745;28;20454;-77
2023/01/23 03:24:06;;;;;;;16.23;7.90;;;3.50;84.20;;;;;;5034588;28;20091;-77
2023/01/23 03:26:32;;;;;;;14.75;9.30;;;3.50;84.20;;;;;;5058866;28;20036;-77
2023/01/23 03:31:42;;;;;;;13.38;7.93;;;3.50;84.20;;;;;;5038998;28;20492;-77
2023/01/23 03:34:08;;;;;;;17.85;8.73;;;3.50;84.20;;;;;;5034283;28;20041;-77
2023/01/23 03:36:36;;;;;;;14.85;8.85;;;3.70;84.30;;;;;;5050631;28;20045;-77
2023/01/23 03:41:51;;;;;;;13.00;8.75;;;3.50;84.20;;;;;;5051148;28;20040;-77
2023/01/23 03:44:19;;;;;;;16.67;8.73;;;3.50;84.10;;;;;;5050829;28;20115;-77
2023/01/23 03:46:46;;;;;;;12.52;8.00;;;3.60;84.20;;;;;;5034968;28;20439;-77
2023/01/23 03:49:12;;;;;;;14.02;8.80;;;3.50;84.10;;;;;;5052793;28;20037;-77
2023/01/23 03:51:38;;;;;;;13.55;8.35;;;3.70;84.20;;;;;;5055226;28;20120;-77
2023/01/23 03:54:03;;;;;;;13.38;8.85;;;3.50;84.10;;;;;;5038823;28;20116;-77
2023/01/23 03:56:29;;;;;;;13.40;9.52;;;3.50;84.00;;;;;;5020926;28;20041;-76
2023/01/23 03:58:55;;;;;;;15.75;9.07;;;3.50;84.00;;;;;;5038848;28;20068;-77
2023/01/23 04:01:21;;;;;;;15.30;8.88;;;3.50;84.10;;;;;;5003712;28;20626;-76
2023/01/23 04:03:48;;;;;;;11.68;8.18;;;3.60;84.10;;;;;;5044142;28;20079;-77
2023/01/23 04:06:13;;;;;;;12.02;7.30;;;3.60;84.10;;;;;;5052078;28;20045;-77
2023/01/23 04:08:39;;;;;;;14.15;8.55;;;3.50;84.10;;;;;;5024652;28;20113;-77
2023/01/23 04:11:07;;;;;;;14.15;8.75;;;3.60;84.20;;;;;;5022114;28;20446;-77
2023/01/23 04:13:33;;;;;;;14.20;8.93;;;3.60;84.30;;;;;;5061632;28;20041;-77
2023/01/23 04:16:01;;;;;;;14.57;9.13;;;3.60;84.20;;;;;;5034953;28;20038;-77
2023/01/23 04:18:27;;;;;;;12.93;8.48;;;3.60;84.30;;;;;;5045804;28;20037;-77
2023/01/23 04:20:53;;;;;;;11.32;7.57;;;3.60;84.30;;;;;;5038707;28;20033;-77
2023/01/23 04:23:19;;;;;;;14.32;8.50;;;3.60;84.30;;;;;;5039404;28;20132;-77
2023/01/23 04:25:45;;;;;;;12.45;7.95;;;3.60;84.20;;;;;;5038120;28;20045;-77
2023/01/23 04:28:11;;;;;;;16.17;9.60;;;3.60;84.20;;;;;;5054639;28;20037;-77
2023/01/23 04:30:36;;;;;;;15.27;9.82;;;3.60;84.20;;;;;;5054648;28;20122;-77
2023/01/23 04:33:02;;;;;;;17.98;9.88;;;3.60;84.20;;;;;;5054735;28;20043;-77
2023/01/23 04:35:28;;;;;;;13.15;9.23;;;3.60;84.10;;;;;;5015212;28;20086;-77
2023/01/23 04:37:53;;;;;;;15.35;9.40;;;3.70;84.10;;;;;;5037923;28;20098;-77
2023/01/23 04:40:19;;;;;;;10.25;7.00;;;3.70;84.10;;;;;;5054547;28;20123;-77
2023/01/23 04:42:45;;;;;;;15.20;9.85;;;3.60;84.00;;;;;;5037358;28;20033;-77
2023/01/23 04:45:10;;;;;;;10.75;7.72;;;3.70;84.10;;;;;;5054274;28;20033;-76
2023/01/23 04:47:36;;;;;;;12.82;9.10;;;3.70;84.10;;;;;;5053995;28;20084;-77
2023/01/23 04:50:03;;;;;;;13.85;8.93;;;3.60;83.90;;;;;;5054002;28;20561;-77
2023/01/23 04:52:29;;;;;;;13.40;9.07;;;3.70;84.00;;;;;;5054034;28;20400;-77
2023/01/23 04:54:55;;;;;;;14.18;9.35;;;3.70;83.90;;;;;;5037560;28;20118;-79
2023/01/23 04:57:21;;;;;;;10.10;7.32;;;3.70;83.90;;;;;;5054360;28;20041;-80
2023/01/23 04:59:46;;;;;;;14.75;9.20;;;3.70;83.80;;;;;;5037346;28;20044;-79
2023/01/23 05:02:12;;;;;;;14.50;8.55;;;3.70;83.80;;;;;;5036856;28;20060;-79
2023/01/23 05:04:38;;;;;;;16.92;9.48;;;3.60;83.70;;;;;;5037908;28;20123;-80
2023/01/23 05:07:03;;;;;;;13.80;9.30;;;3.70;83.80;;;;;;5038027;28;20392;-79
2023/01/23 05:09:29;;;;;;;12.43;8.65;;;3.70;83.80;;;;;;5037385;28;20102;-79
2023/01/23 05:11:55;;;;;;;15.82;9.75;;;3.70;83.70;;;;;;5018100;28;20520;-79
2023/01/23 05:14:23;;;;;;;11.63;8.30;;;3.70;83.70;;;;;;5050773;28;20052;-79
2023/01/23 05:16:48;;;;;;;16.13;9.25;;;3.70;83.70;;;;;;5050819;28;20548;-79
2023/01/23 05:19:14;;;;;;;14.98;9.73;;;3.60;83.60;;;;;;5053048;28;20120;-79
2023/01/23 05:21:40;;;;;;;12.35;8.57;;;3.60;83.60;;;;;;5053995;28;20072;-79
2023/01/23 05:24:06;;;;;;;16.13;9.85;;;3.60;83.60;;;;;;5037704;28;20122;-79
2023/01/23 05:26:33;;;;;;;15.38;10.27;;;3.60;83.60;;;;;;5017465;28;20519;-79
2023/01/23 05:28:59;;;;;;;16.02;10.55;;;3.60;83.60;;;;;;5017841;28;20038;-79
2023/01/23 05:31:25;;;;;;;15.48;10.82;;;3.70;83.60;;;;;;5034491;28;20099;-79
2023/01/23 05:33:51;;;;;;;19.20;10.82;;;3.60;83.50;;;;;;5037200;28;20118;-79
2023/01/23 05:36:17;;;;;;;16.77;10.65;;;3.60;83.50;;;;;;5053507;28;20041;-79
2023/01/23 05:38:42;;;;;;;17.05;10.75;;;3.60;83.40;;;;;;5037112;28;20048;-80
2023/01/23 05:41:08;;;;;;;15.02;10.00;;;3.60;83.50;;;;;;5037441;28;20437;-79
2023/01/23 05:43:34;;;;;;;14.75;10.20;;;3.60;83.50;;;;;;5037047;28;20120;-79
2023/01/23 05:46:00;;;;;;;15.75;10.88;;;3.60;83.60;;;;;;5037074;28;20068;-79
2023/01/23 05:48:26;;;;;;;13.63;10.75;;;3.50;83.50;;;;;;5053559;28;20037;-79
2023/01/23 05:50:52;;;;;;;17.00;10.93;;;3.50;83.60;;;;;;5036834;28;20049;-79
2023/01/23 05:53:18;;;;;;;18.13;12.18;;;3.50;83.60;;;;;;5036651;28;20033;-79
2023/01/23 05:55:43;;;;;;;19.83;11.32;;;3.50;83.60;;;;;;5036682;28;20120;-79
2023/01/23 05:58:09;;;;;;;17.25;11.05;;;3.50;83.60;;;;;;5053175;28;20056;-79
2023/01/23 06:00:35;;;;;;;17.77;11.52;;;3.50;83.70;;;;;;5053029;28;20033;-79
2023/01/23 06:03:00;;;;;;;16.33;11.10;;;3.50;83.70;;;;;;5020651;28;20089;-79
2023/01/23 06:05:29;;;;;;;18.33;10.80;;;3.50;83.80;;;;;;5053369;28;20514;-78
2023/01/23 06:07:55;;;;;;;17.95;10.88;;;3.50;83.80;;;;;;5053597;28;20040;-79
2023/01/23 06:10:21;;;;;;;20.95;11.55;;;3.40;83.80;;;;;;5036493;28;20515;-79
2023/01/23 06:12:47;;;;;;;20.83;11.93;;;3.40;83.80;;;;;;5036093;28;20049;-79
2023/01/23 06:15:12;;;;;;;19.80;11.63;;;3.40;83.80;;;;;;5036698;28;20041;-79
2023/01/23 06:17:38;;;;;;;16.33;11.20;;;3.40;83.90;;;;;;5036524;28;20128;-79
2023/01/23 06:20:04;;;;;;;16.73;10.85;;;3.40;83.90;;;;;;5019674;28;20033;-79
2023/01/23 06:22:30;;;;;;;17.85;11.05;;;3.40;84.00;;;;;;5003680;28;20033;-79
2023/01/23 06:24:55;;;;;;;17.05;10.65;;;3.40;84.00;;;;;;5036355;28;20044;-79
2023/01/23 06:27:21;;;;;;;15.05;10.25;;;3.40;84.00;;;;;;5052847;28;20040;-79
2023/01/23 06:29:47;;;;;;;17.92;10.90;;;3.40;84.10;;;;;;5020007;28;20049;-79
2023/01/23 06:32:12;;;;;;;16.23;11.60;;;3.40;84.20;;;;;;5036365;28;20048;-79
2023/01/23 06:34:38;;;;;;;18.85;11.15;;;3.40;84.30;;;;;;5053013;28;20392;-79
2023/01/23 06:37:04;;;;;;;15.48;10.70;;;3.40;84.30;;;;;;5036059;28;20044;-79
2023/01/23 06:39:30;;;;;;;16.98;11.23;;;3.40;84.30;;;;;;5052695;28;20037;-79
2023/01/23 06:41:56;;;;;;;17.75;11.50;;;3.40;84.30;;;;;;5036010;28;20045;-79
2023/01/23 06:44:22;;;;;;;16.75;11.43;;;3.40;84.20;;;;;;5035927;28;20089;-79
2023/01/23 06:46:48;;;;;;;18.92;12.00;;;3.50;84.30;;;;;;5036373;28;20396;-79
2023/01/23 06:49:14;;;;;;;18.88;11.55;;;3.40;84.20;;;;;;5019560;28;20041;-79
2023/01/23 06:51:40;;;;;;;18.58;12.82;;;3.40;84.10;;;;;;5035550;28;20045;-79
2023/01/23 06:54:05;;;;;;;16.52;11.45;;;3.40;84.10;;;;;;5052245;28;20041;-79
2023/01/23 06:56:31;;;;;;;20.48;11.68;;;3.40;84.10;;;;;;5035765;28;20056;-79
2023/01/23 06:58:57;;;;;;;16.55;12.10;;;3.40;84.10;;;;;;5052620;28;20044;-79
2023/01/23 07:01:23;;;;;;;18.38;12.38;;;3.50;84.20;;;;;;5019300;28;20443;-80
2023/01/23 07:03:49;;;;;;;18.25;12.50;;;3.40;84.20;;;;;;5052439;28;20083;-80
2023/01/23 07:06:15;;;;;;;20.58;13.63;;;3.40;84.20;;;;;;5052283;28;20403;-80
2023/01/23 07:08:41;;;;;;;19.80;13.07;;;3.40;84.20;;;;;;5035212;28;20572;-80
2023/01/23 07:11:08;;;;;;;18.80;13.00;;;3.30;84.20;;;;;;5052385;28;20393;-80
2023/01/23 07:13:34;;;;;;;18.45;12.65;;;3.30;84.20;;;;;;5052144;28;20457;-80
2023/01/23 07:16:00;;;;;;;19.35;12.43;;;3.30;84.20;;;;;;5052038;28;20075;-80
2023/01/23 07:18:27;;;;;;;23.27;12.63;;;3.30;84.20;;;;;;5052182;28;20435;-80
2023/01/23 07:20:54;;;;;;;18.85;11.65;;;3.30;84.30;;;;;;5035708;28;20036;-80
2023/01/23 07:23:20;;;;;;;22.13;12.68;;;3.30;84.40;;;;;;5051093;28;20040;-80
2023/01/23 07:25:46;;;;;;;19.75;12.70;;;3.30;84.40;;;;;;5051797;28;20103;-80
2023/01/23 07:28:12;;;;;;;18.13;12.63;;;3.30;84.40;;;;;;5035220;28;20070;-80
2023/01/23 07:30:38;;;;;;;22.25;12.80;;;3.20;84.40;;;;;;5034611;28;20037;-80
2023/01/23 07:33:04;;;;;;;22.73;12.30;;;3.20;84.50;;;;;;5018673;28;20041;-80
2023/01/23 07:35:30;;;;;;;19.25;12.13;;;3.30;84.60;;;;;;5035131;28;20037;-80
2023/01/23 07:37:56;;;;;;;19.50;12.18;;;3.20;84.60;;;;;;5035165;28;20175;-80
2023/01/23 07:40:22;;;;;;;20.25;12.77;;;3.30;84.80;;;;;;5035122;28;20503;-80
2023/01/23 07:42:47;;;;;;;20.05;12.82;;;3.20;84.80;;;;;;5050752;28;20041;-80
2023/01/23 07:45:13;;;;;;;18.55;11.60;;;3.20;84.70;;;;;;4998792;28;20039;-80
2023/01/23 07:47:39;;;;;;;19.27;12.63;;;3.20;84.80;;;;;;5031451;28;20092;-80
2023/01/23 07:50:11;;;;;;;21.55;12.82;;;3.40;85.00;;;;;;5015162;28;20049;-80
2023/01/23 07:52:38;;;;;;;21.00;12.57;;;3.20;84.90;;;;;;5031604;28;20042;-80
2023/01/23 07:55:04;;;;;;;20.95;12.02;;;3.20;84.90;;;;;;5031367;28;20037;-80
2023/01/23 07:57:29;;;;;;;17.30;11.68;;;3.20;85.00;;;;;;5045886;28;20060;-80
2023/01/23 07:59:55;;;;;;;21.35;13.30;;;3.20;85.00;;;;;;5051452;28;20033;-80
2023/01/23 08:02:21;;;;;;;20.60;12.73;;;3.20;85.00;;;;;;5034751;28;20037;-80
2023/01/23 08:04:47;;;;;;;19.98;12.55;;;3.20;85.10;;;;;;5018191;28;20095;-80
2023/01/23 08:07:13;;;;;;;23.40;14.50;;;3.20;85.10;;;;;;5034757;28;20045;-80
2023/01/23 08:09:39;;;;;;;22.27;13.77;;;3.20;85.10;;;;;;5018265;28;20063;-80
2023/01/23 08:12:05;;;;;;;19.08;13.52;;;3.20;85.20;;;;;;5035012;28;20080;-80
2023/01/23 08:14:31;;;;;;;23.10;13.70;;;3.20;85.20;;;;;;5051643;28;20045;-80
2023/01/23 08:16:57;;;;;;;22.23;14.23;;;3.20;85.20;;;;;;5034880;28;20106;-81
2023/01/23 08:19:26;;;;;;;20.52;13.02;;;3.20;85.20;;;;;;5034775;28;20126;-81
2023/01/23 08:21:52;;;;;;;19.77;13.38;;;3.20;85.30;;;;;;5051335;28;20044;-81
2023/01/23 08:24:18;;;;;;;20.45;12.65;;;3.20;85.40;;;;;;5034737;28;20037;-80
2023/01/23 08:26:44;;;;;;;21.08;13.05;;;3.30;85.50;;;;;;5051357;28;20499;-80
2023/01/23 08:29:10;;;;;;;18.77;12.80;;;3.40;85.60;;;;;;5051213;28;20045;-80
2023/01/23 08:31:37;;;;;;;20.95;12.43;;;3.20;85.40;;;;;;5034807;28;20049;-80
2023/01/23 08:34:03;;;;;;;17.17;12.50;;;3.20;85.50;;;;;;5034787;28;20040;-80
2023/01/23 08:36:28;;;;;;;23.35;13.02;;;3.20;85.50;;;;;;5037884;28;20041;-80
2023/01/23 08:38:54;;;;;;;20.33;12.88;;;3.60;85.80;;;;;;5038244;28;20037;-81
2023/01/23 08:41:22;;;;;;;26.88;14.05;;;3.20;85.50;;;;;;5038377;28;20048;-81
2023/01/23 08:43:48;;;;;;;20.75;13.23;;;3.20;85.50;;;;;;5055534;28;20036;-80
2023/01/23 08:46:14;;;;;;;22.33;13.55;;;3.20;85.60;;;;;;5055199;28;20389;-80
2023/01/23 08:48:40;;;;;;;21.30;13.25;;;3.20;85.60;;;;;;5021879;28;20078;-82
2023/01/23 08:51:09;;;;;;;19.50;12.98;;;3.30;85.70;;;;;;5038293;28;20067;-82
2023/01/23 08:53:35;;;;;;;19.95;13.13;;;3.20;85.70;;;;;;5037739;28;20041;-82
2023/01/23 08:56:13;;;;;;;21.67;13.35;;;3.60;85.90;;;;;;5037833;28;20036;-81
2023/01/23 08:58:38;;;;;;;20.73;13.25;;;3.30;85.80;;;;;;5054754;28;20040;-81
2023/01/23 09:01:04;;;;;;;18.73;13.25;;;3.80;86.10;;;;;;5037600;28;20116;-81
2023/01/23 09:03:30;;;;;;;20.00;12.50;;;3.30;85.80;;;;;;5021673;28;20042;-81
2023/01/23 09:06:00;;;;;;;19.05;12.25;;;3.30;85.80;;;;;;5054536;28;20036;-81
2023/01/23 09:08:26;;;;;;;16.98;11.65;;;3.50;86.00;;;;;;5053983;28;20044;-82
2023/01/23 09:10:52;;;;;;;16.92;11.95;;;3.30;85.90;;;;;;5053794;28;20080;-86
2023/01/23 09:13:18;;;;;;;21.63;13.05;;;3.30;85.80;;;;;;5004649;28;20040;-79
2023/01/23 09:15:45;;;;;;;17.00;12.60;;;3.40;85.90;;;;;;5037777;28;20041;-80
2023/01/23 09:18:11;;;;;;;17.60;11.90;;;3.40;85.90;;;;;;5037446;28;20051;-80
2023/01/23 09:20:37;;;;;;;19.42;12.82;;;3.60;85.90;;;;;;5054236;28;20554;-79
2023/01/23 09:23:03;;;;;;;21.60;13.32;;;3.40;85.80;;;;;;5054062;28;20040;-79
2023/01/23 09:25:30;;;;;;;20.30;13.48;;;3.40;85.80;;;;;;5054043;28;20370;-79
2023/01/23 09:27:56;;;;;;;17.08;12.65;;;3.50;85.90;;;;;;5037437;28;20041;-79
2023/01/23 09:30:21;;;;;;;18.33;12.23;;;3.80;86.00;;;;;;5053749;28;20071;-76
2023/01/23 09:32:47;;;;;;;20.73;12.57;;;3.50;85.80;;;;;;5037185;28;20132;-76
2023/01/23 09:35:13;;;;;;;14.98;11.93;;;3.50;85.80;;;;;;5037167;28;20504;-76
2023/01/23 09:40:23;;;;;;;22.03;12.70;;;3.60;85.80;;;;;;5053673;28;20430;-76
2023/01/23 09:42:51;;;;;;;19.95;12.75;;;3.50;85.70;;;;;;5053126;28;20323;-76
2023/01/23 09:45:21;;;;;;;20.52;12.55;;;3.60;85.80;;;;;;5016878;28;20048;-76
2023/01/23 09:47:55;;;;;;;15.77;12.02;;;3.80;85.90;;;;;;5033045;28;20046;-76
2023/01/23 09:50:27;;;;;;;18.38;12.68;;;3.60;85.80;;;;;;5033297;28;20041;-76
2023/01/23 09:53:11;;;;;;;19.85;11.77;;;3.60;85.70;;;;;;5033438;28;20444;-76
2023/01/23 09:55:48;;;;;;;16.67;11.95;;;3.70;85.80;;;;;;5044809;28;20045;-76
2023/01/23 09:58:26;;;;;;;15.65;10.93;;;3.70;85.70;;;;;;5036214;28;20063;-76
2023/01/23 10:00:52;;;;;;;20.88;11.88;;;3.70;85.70;;;;;;5053031;28;20041;-76
2023/01/23 10:03:18;;;;;;;18.35;11.40;;;3.70;85.60;;;;;;5036582;28;20036;-76
2023/01/23 10:05:47;;;;;;;17.58;10.93;;;3.80;85.70;;;;;;5052816;28;20080;-76
2023/01/23 10:08:49;;;;;;;20.67;10.95;;;3.80;85.50;;;;;;5036319;28;20130;-76
2023/01/23 10:11:35;;;;;;;15.75;10.90;;;3.80;85.50;;;;;;5053085;28;20048;-76
2023/01/23 10:14:14;;;;;;;15.23;10.60;;;3.80;85.40;;;;;;5052817;28;20055;-76
2023/01/23 10:16:50;;;;;;;17.25;10.60;;;3.80;85.40;;;;;;5036052;28;20044;-76
2023/01/23 10:19:22;;;;;;;14.27;10.18;;;3.80;85.40;;;;;;5052710;28;20122;-76
2023/01/23 10:22:01;;;;;;;13.48;9.98;;;3.80;85.30;;;;;;5035755;28;20091;-76
2023/01/23 10:24:54;;;;;;;13.82;9.68;;;3.90;85.30;;;;;;5052533;28;20142;-76
2023/01/23 10:27:22;;;;;;;15.55;9.85;;;3.90;85.20;;;;;;5069400;28;20373;-76
2023/01/23 10:29:55;;;;;;;16.00;9.93;;;3.90;85.10;;;;;;5036131;28;20037;-79
2023/01/23 10:32:29;;;;;;;14.30;8.85;;;3.90;85.10;;;;;;5052899;28;20052;-80
2023/01/23 10:35:10;;;;;;;12.35;8.98;;;4.00;84.90;;;;;;5036135;28;20511;-80
2023/01/23 10:38:00;;;;;;;11.77;8.75;;;4.00;84.80;;;;;;5052661;28;20040;-80
2023/01/23 10:43:17;;;;;;;12.70;8.60;;;4.00;84.50;;;;;;5052811;28;20392;-80
2023/01/23 10:45:45;;;;;;;13.90;9.73;;;4.00;84.40;;;;;;5035858;28;20488;-79
2023/01/23 10:48:42;;;;;;;12.20;7.82;;;4.00;84.30;;;;;;5052703;28;20048;-79
2023/01/23 10:51:25;;;;;;;10.80;8.13;;;4.10;84.20;;;;;;5016087;28;20048;-79
2023/01/23 10:54:21;;;;;;;12.98;8.63;;;4.10;84.10;;;;;;5032440;28;20049;-79
2023/01/23 10:57:23;;;;;;;12.60;8.10;;;4.10;83.90;;;;;;5016073;28;20150;-79
2023/01/23 10:59:49;;;;;;;10.85;8.13;;;4.10;83.90;;;;;;5030454;28;20103;-80
2023/01/23 11:02:14;;;;;;;11.02;8.23;;;4.10;83.80;;;;;;5033071;28;20036;-80
2023/01/23 11:04:50;;;;;;;13.57;8.13;;;4.10;83.70;;;;;;5035485;28;20071;-79
2023/01/23 11:07:18;;;;;;;13.55;7.63;;;4.20;83.70;;;;;;5035337;28;20051;-79
2023/01/23 11:09:46;;;;;;;9.95;8.38;;;4.30;83.60;;;;;;5051612;28;20057;-79
2023/01/23 11:12:48;;;;;;;11.90;8.38;;;4.20;83.40;;;;;;5051947;28;20048;-79
2023/01/23 11:15:27;;;;;;;10.85;6.90;;;4.20;83.10;;;;;;5031694;28;20147;-79
2023/01/23 11:17:55;;;;;;;11.20;7.45;;;4.20;83.10;;;;;;5051879;28;20138;-79
2023/01/23 11:20:24;;;;;;;11.90;8.52;;;4.20;83.00;;;;;;5052521;28;20380;-79
2023/01/23 11:23:09;;;;;;;12.38;7.30;;;4.30;83.00;;;;;;5052386;28;20047;-79
2023/01/23 11:25:37;;;;;;;11.65;7.68;;;4.30;82.90;;;;;;5035559;28;20463;-79
2023/01/23 11:28:22;;;;;;;11.27;7.88;;;4.30;83.00;;;;;;5035357;28;20041;-79
2023/01/23 11:30:53;;;;;;;9.38;6.97;;;4.30;82.80;;;;;;5051619;28;20167;-79
2023/01/23 11:33:39;;;;;;;10.43;7.00;;;4.30;82.70;;;;;;5051887;28;20045;-79
2023/01/23 11:36:17;;;;;;;10.50;6.95;;;4.30;82.60;;;;;;5051943;28;20388;-79
2023/01/23 11:38:51;;;;;;;10.38;6.55;;;4.40;82.60;;;;;;5051904;28;20107;-79
2023/01/23 11:41:17;;;;;;;8.93;6.30;;;4.30;82.40;;;;;;5068441;28;20118;-75
2023/01/23 11:43:42;;;;;;;8.55;6.50;;;4.40;82.10;;;;;;5034639;28;20485;-75
2023/01/23 11:46:32;;;;;;;12.60;7.35;;;4.40;82.10;;;;;;5035121;28;20090;-75
2023/01/23 11:49:36;;;;;;;9.60;6.40;;;4.40;82.00;;;;;;5051618;28;20084;-76
2023/01/23 11:52:10;;;;;;;9.52;6.47;;;4.40;82.00;;;;;;5034738;28;20044;-79
2023/01/23 11:54:48;;;;;;;8.57;6.28;;;4.40;82.00;;;;;;5035240;28;20048;-79
2023/01/23 11:57:30;;;;;;;8.35;5.53;;;4.40;81.80;;;;;;5034812;28;20052;-79
2023/01/23 12:00:07;;;;;;;7.93;6.05;;;4.40;81.70;;;;;;5035011;28;20049;-79
2023/01/23 12:02:53;;;;;;;10.10;6.63;;;4.50;81.60;;;;;;5051477;28;20085;-79
2023/01/23 12:05:44;;;;;;;9.50;6.43;;;4.50;81.30;;;;;;5051771;28;20090;-79
2023/01/23 12:08:27;;;;;;;11.15;6.47;;;4.50;81.10;;;;;;5051368;28;20045;-79
2023/01/23 12:11:15;;;;;;;9.48;6.38;;;4.50;81.10;;;;;;5053953;28;20411;-79
2023/01/23 12:14:17;;;;;;;8.90;5.90;;;4.50;81.10;;;;;;5055134;28;20055;-76
2023/01/23 12:16:49;;;;;;;10.13;6.20;;;4.50;81.00;;;;;;5055107;28;20045;-79
2023/01/23 12:19:24;;;;;;;9.48;6.55;;;4.50;81.10;;;;;;5055494;28;20049;-80
2023/01/23 12:21:55;;;;;;;10.27;6.32;;;4.50;81.10;;;;;;5055250;28;20079;-79
2023/01/23 12:24:42;;;;;;;8.13;5.97;;;4.50;81.00;;;;;;5055326;28;20507;-79
2023/01/23 12:27:27;;;;;;;9.55;5.95;;;4.60;80.70;;;;;;5055144;28;20041;-80
2023/01/23 12:30:26;;;;;;;9.55;6.10;;;4.60;80.50;;;;;;5055163;28;20045;-79
2023/01/23 12:33:22;;;;;;;8.07;5.90;;;4.60;80.50;;;;;;5023278;28;20049;-79
2023/01/23 12:35:59;;;;;;;8.57;6.03;;;4.60;80.50;;;;;;5038467;28;20468;-79
2023/01/23 12:39:12;;;;;;;10.55;6.22;;;4.60;80.70;;;;;;5054641;28;20488;-79
2023/01/23 12:41:44;;;;;;;11.30;6.45;;;4.60;80.40;;;;;;5054255;28;20083;-75
2023/01/23 12:44:17;;;;;;;9.45;6.57;;;4.60;80.50;;;;;;5038038;28;20032;-76
2023/01/23 12:46:53;;;;;;;10.50;6.37;;;4.60;80.50;;;;;;5054568;28;20515;-76
2023/01/23 12:49:39;;;;;;;8.60;6.32;;;4.60;80.50;;;;;;5054453;28;20283;-76
2023/01/23 12:52:17;;;;;;;8.65;5.63;;;4.70;80.40;;;;;;5054381;28;20041;-76
2023/01/23 12:54:48;;;;;;;8.98;5.80;;;4.60;80.40;;;;;;5037660;28;20048;-76
2023/01/23 12:57:38;;;;;;;9.07;5.90;;;4.70;80.40;;;;;;5037569;28;20048;-76
2023/01/23 13:00:18;;;;;;;8.65;6.25;;;4.70;80.40;;;;;;5054245;28;20048;-76
2023/01/23 13:02:48;;;;;;;7.70;5.57;;;4.70;80.30;;;;;;5054372;28;20045;-76
2023/01/23 13:05:20;;;;;;;10.63;5.30;;;4.70;80.10;;;;;;5053729;28;20116;-75
2023/01/23 13:08:02;;;;;;;9.23;6.22;;;4.80;80.00;;;;;;5053929;28;20055;-75
2023/01/23 13:13:45;;;;;;;9.20;5.78;;;4.80;79.90;;;;;;5033911;28;20052;-74